sensor_id;sensor_type;location;lat;lon;timestamp;P1;durP1;ratioP1;P2;durP2;ratioP2
9773;SDS011;4926;42.670;23.316;2023-07-31T00:02:12;4.35;;;3.25;;
9773;SDS011;4926;42.670;23.316;2023-07-31T00:04:40;4.88;;;3.05;;
9773;SDS011;4926;42.670;23.316;2023-07-31T00:07:07;3.97;;;3.58;;
9773;SDS011;4926;42.670;23.316;2023-07-31T00:09:37;3.50;;;3.20;;
9773;SDS011;4926;42.670;23.316;2023-07-31T00:12:04;3.90;;;3.60;;
9773;SDS011;4926;42.670;23.316;2023-07-31T00:14:33;4.38;;;3.33;;
9773;SDS011;4926;42.670;23.316;2023-07-31T00:17:00;3.50;;;3.20;;
9773;SDS011;4926;42.670;23.316;2023-07-31T00:19:27;4.00;;;3.45;;
9773;SDS011;4926;42.670;23.316;2023-07-31T00:21:58;3.65;;;3.35;;
9773;SDS011;4926;42.670;23.316;2023-07-31T00:24:25;3.90;;;3.60;;
9773;SDS011;4926;42.670;23.316;2023-07-31T00:26:52;4.43;;;3.90;;
9773;SDS011;4926;42.670;23.316;2023-07-31T00:29:18;4.32;;;3.92;;
9773;SDS011;4926;42.670;23.316;2023-07-31T00:31:45;5.65;;;4.60;;
9773;SDS011;4926;42.670;23.316;2023-07-31T00:34:17;6.22;;;4.68;;
9773;SDS011;4926;42.670;23.316;2023-07-31T00:36:43;4.80;;;4.40;;
9773;SDS011;4926;42.670;23.316;2023-07-31T00:39:16;4.97;;;4.43;;
9773;SDS011;4926;42.670;23.316;2023-07-31T00:41:43;4.65;;;4.25;;
9773;SDS011;4926;42.670;23.316;2023-07-31T00:44:13;5.32;;;4.82;;
9773;SDS011;4926;42.670;23.316;2023-07-31T00:46:43;7.07;;;5.28;;
9773;SDS011;4926;42.670;23.316;2023-07-31T00:49:10;5.72;;;5.13;;
9773;SDS011;4926;42.670;23.316;2023-07-31T00:51:37;6.30;;;5.70;;
9773;SDS011;4926;42.670;23.316;2023-07-31T00:54:04;6.25;;;5.75;;
9773;SDS011;4926;42.670;23.316;2023-07-31T00:56:33;5.97;;;5.47;;
9773;SDS011;4926;42.670;23.316;2023-07-31T00:59:01;6.20;;;5.70;;
9773;SDS011;4926;42.670;23.316;2023-07-31T01:01:28;6.38;;;5.85;;
9773;SDS011;4926;42.670;23.316;2023-07-31T01:03:55;6.95;;;6.35;;
9773;SDS011;4926;42.670;23.316;2023-07-31T01:06:24;7.10;;;6.50;;
9773;SDS011;4926;42.670;23.316;2023-07-31T01:09:02;8.15;;;7.50;;
9773;SDS011;4926;42.670;23.316;2023-07-31T01:11:30;8.48;;;7.78;;
9773;SDS011;4926;42.670;23.316;2023-07-31T01:14:02;8.55;;;7.80;;
9773;SDS011;4926;42.670;23.316;2023-07-31T01:16:32;8.90;;;8.13;;
9773;SDS011;4926;42.670;23.316;2023-07-31T01:18:59;10.70;;;9.70;;
9773;SDS011;4926;42.670;23.316;2023-07-31T01:21:30;11.70;;;10.60;;
9773;SDS011;4926;42.670;23.316;2023-07-31T01:26:58;10.90;;;9.93;;
9773;SDS011;4926;42.670;23.316;2023-07-31T01:29:32;12.10;;;10.90;;
9773;SDS011;4926;42.670;23.316;2023-07-31T01:32:05;12.27;;;11.15;;
9773;SDS011;4926;42.670;23.316;2023-07-31T01:34:34;13.35;;;12.05;;
9773;SDS011;4926;42.670;23.316;2023-07-31T01:37:02;14.77;;;13.27;;
9773;SDS011;4926;42.670;23.316;2023-07-31T01:39:31;15.77;;;14.27;;
9773;SDS011;4926;42.670;23.316;2023-07-31T01:41:59;16.33;;;14.82;;
9773;SDS011;4926;42.670;23.316;2023-07-31T01:44:26;16.80;;;15.27;;
9773;SDS011;4926;42.670;23.316;2023-07-31T01:46:53;18.63;;;16.83;;
9773;SDS011;4926;42.670;23.316;2023-07-31T01:49:25;18.80;;;17.10;;
9773;SDS011;4926;42.670;23.316;2023-07-31T01:51:52;21.90;;;19.60;;
9773;SDS011;4926;42.670;23.316;2023-07-31T01:54:20;21.42;;;19.23;;
9773;SDS011;4926;42.670;23.316;2023-07-31T01:56:46;20.13;;;18.23;;
9773;SDS011;4926;42.670;23.316;2023-07-31T01:59:14;20.98;;;19.08;;
9773;SDS011;4926;42.670;23.316;2023-07-31T02:01:41;21.17;;;19.17;;
9773;SDS011;4926;42.670;23.316;2023-07-31T02:04:10;22.50;;;20.40;;
9773;SDS011;4926;42.670;23.316;2023-07-31T02:06:40;21.75;;;19.65;;
9773;SDS011;4926;42.670;23.316;2023-07-31T02:09:09;23.45;;;21.10;;
9773;SDS011;4926;42.670;23.316;2023-07-31T02:11:35;24.55;;;22.05;;
9773;SDS011;4926;42.670;23.316;2023-07-31T02:14:04;23.08;;;20.88;;
9773;SDS011;4926;42.670;23.316;2023-07-31T02:16:32;22.52;;;20.52;;
9773;SDS011;4926;42.670;23.316;2023-07-31T02:19:01;23.05;;;21.00;;
9773;SDS011;4926;42.670;23.316;2023-07-31T02:21:27;23.35;;;21.05;;
9773;SDS011;4926;42.670;23.316;2023-07-31T02:23:54;23.42;;;21.25;;
9773;SDS011;4926;42.670;23.316;2023-07-31T02:26:21;24.70;;;22.38;;
9773;SDS011;4926;42.670;23.316;2023-07-31T02:28:47;23.02;;;20.65;;
9773;SDS011;4926;42.670;23.316;2023-07-31T02:31:16;22.50;;;20.35;;
9773;SDS011;4926;42.670;23.316;2023-07-31T02:33:48;24.25;;;21.95;;
9773;SDS011;4926;42.670;23.316;2023-07-31T02:36:15;24.90;;;22.38;;
9773;SDS011;4926;42.670;23.316;2023-07-31T02:38:41;23.20;;;20.88;;
9773;SDS011;4926;42.670;23.316;2023-07-31T02:41:08;23.17;;;21.08;;
9773;SDS011;4926;42.670;23.316;2023-07-31T02:43:37;22.45;;;20.35;;
9773;SDS011;4926;42.670;23.316;2023-07-31T02:46:04;23.63;;;21.33;;
9773;SDS011;4926;42.670;23.316;2023-07-31T02:48:31;23.60;;;21.40;;
9773;SDS011;4926;42.670;23.316;2023-07-31T02:50:59;23.08;;;20.88;;
9773;SDS011;4926;42.670;23.316;2023-07-31T02:53:26;23.95;;;21.55;;
9773;SDS011;4926;42.670;23.316;2023-07-31T02:55:56;22.75;;;20.52;;
9773;SDS011;4926;42.670;23.316;2023-07-31T02:58:25;23.45;;;21.25;;
9773;SDS011;4926;42.670;23.316;2023-07-31T03:00:56;22.92;;;20.90;;
9773;SDS011;4926;42.670;23.316;2023-07-31T03:03:24;22.60;;;20.60;;
9773;SDS011;4926;42.670;23.316;2023-07-31T03:05:51;23.00;;;20.85;;
9773;SDS011;4926;42.670;23.316;2023-07-31T03:08:19;24.30;;;21.88;;
9773;SDS011;4926;42.670;23.316;2023-07-31T03:10:46;23.02;;;20.75;;
9773;SDS011;4926;42.670;23.316;2023-07-31T03:13:13;22.88;;;20.75;;
9773;SDS011;4926;42.670;23.316;2023-07-31T03:15:41;23.33;;;21.10;;
9773;SDS011;4926;42.670;23.316;2023-07-31T03:18:08;23.15;;;20.95;;
9773;SDS011;4926;42.670;23.316;2023-07-31T03:20:35;22.33;;;20.13;;
9773;SDS011;4926;42.670;23.316;2023-07-31T03:23:01;24.48;;;22.08;;
9773;SDS011;4926;42.670;23.316;2023-07-31T03:25:29;23.27;;;21.15;;
9773;SDS011;4926;42.670;23.316;2023-07-31T03:27:59;23.25;;;20.98;;
9773;SDS011;4926;42.670;23.316;2023-07-31T03:30:26;23.80;;;21.30;;
9773;SDS011;4926;42.670;23.316;2023-07-31T03:32:53;23.13;;;20.80;;
9773;SDS011;4926;42.670;23.316;2023-07-31T03:35:20;23.05;;;20.95;;
9773;SDS011;4926;42.670;23.316;2023-07-31T03:37:48;23.17;;;20.98;;
9773;SDS011;4926;42.670;23.316;2023-07-31T03:40:15;24.55;;;22.17;;
9773;SDS011;4926;42.670;23.316;2023-07-31T03:42:42;24.70;;;22.38;;
9773;SDS011;4926;42.670;23.316;2023-07-31T03:45:18;23.98;;;21.67;;
9773;SDS011;4926;42.670;23.316;2023-07-31T03:47:45;23.70;;;21.42;;
9773;SDS011;4926;42.670;23.316;2023-07-31T03:50:12;24.70;;;22.30;;
9773;SDS011;4926;42.670;23.316;2023-07-31T03:52:39;24.38;;;21.85;;
9773;SDS011;4926;42.670;23.316;2023-07-31T03:55:14;24.13;;;21.73;;
9773;SDS011;4926;42.670;23.316;2023-07-31T03:57:42;23.92;;;21.70;;
9773;SDS011;4926;42.670;23.316;2023-07-31T04:00:11;25.52;;;22.92;;
9773;SDS011;4926;42.670;23.316;2023-07-31T04:02:39;25.30;;;22.45;;
9773;SDS011;4926;42.670;23.316;2023-07-31T04:05:07;26.08;;;23.40;;
9773;SDS011;4926;42.670;23.316;2023-07-31T04:07:35;25.65;;;23.15;;
9773;SDS011;4926;42.670;23.316;2023-07-31T04:10:03;26.38;;;23.67;;
9773;SDS011;4926;42.670;23.316;2023-07-31T04:12:30;25.60;;;23.00;;
9773;SDS011;4926;42.670;23.316;2023-07-31T04:14:58;27.08;;;24.38;;
9773;SDS011;4926;42.670;23.316;2023-07-31T04:17:25;27.33;;;24.65;;
9773;SDS011;4926;42.670;23.316;2023-07-31T04:19:51;26.35;;;23.67;;
9773;SDS011;4926;42.670;23.316;2023-07-31T04:22:18;26.60;;;23.70;;
9773;SDS011;4926;42.670;23.316;2023-07-31T04:24:48;25.55;;;22.95;;
9773;SDS011;4926;42.670;23.316;2023-07-31T04:27:17;26.77;;;23.90;;
9773;SDS011;4926;42.670;23.316;2023-07-31T04:29:43;27.40;;;24.33;;
9773;SDS011;4926;42.670;23.316;2023-07-31T04:32:13;26.88;;;24.08;;
9773;SDS011;4926;42.670;23.316;2023-07-31T04:34:41;24.65;;;22.23;;
9773;SDS011;4926;42.670;23.316;2023-07-31T04:37:08;25.88;;;23.38;;
9773;SDS011;4926;42.670;23.316;2023-07-31T04:39:35;25.90;;;23.25;;
9773;SDS011;4926;42.670;23.316;2023-07-31T04:42:02;24.20;;;21.67;;
9773;SDS011;4926;42.670;23.316;2023-07-31T04:44:29;25.45;;;22.90;;
9773;SDS011;4926;42.670;23.316;2023-07-31T04:46:55;24.92;;;22.50;;
9773;SDS011;4926;42.670;23.316;2023-07-31T04:49:24;25.33;;;22.83;;
9773;SDS011;4926;42.670;23.316;2023-07-31T04:51:53;25.52;;;22.95;;
9773;SDS011;4926;42.670;23.316;2023-07-31T04:54:20;24.92;;;22.23;;
9773;SDS011;4926;42.670;23.316;2023-07-31T04:56:46;23.00;;;20.77;;
9773;SDS011;4926;42.670;23.316;2023-07-31T04:59:13;23.95;;;21.63;;
9773;SDS011;4926;42.670;23.316;2023-07-31T05:01:40;24.67;;;22.25;;
9773;SDS011;4926;42.670;23.316;2023-07-31T05:04:08;23.98;;;21.63;;
9773;SDS011;4926;42.670;23.316;2023-07-31T05:06:36;24.20;;;21.75;;
9773;SDS011;4926;42.670;23.316;2023-07-31T05:09:03;23.40;;;20.90;;
9773;SDS011;4926;42.670;23.316;2023-07-31T05:11:29;22.15;;;19.80;;
9773;SDS011;4926;42.670;23.316;2023-07-31T05:13:59;22.50;;;20.35;;
9773;SDS011;4926;42.670;23.316;2023-07-31T05:16:25;21.30;;;19.30;;
9773;SDS011;4926;42.670;23.316;2023-07-31T05:18:55;20.92;;;18.95;;
9773;SDS011;4926;42.670;23.316;2023-07-31T05:21:22;21.35;;;19.25;;
9773;SDS011;4926;42.670;23.316;2023-07-31T05:23:50;20.60;;;18.70;;
9773;SDS011;4926;42.670;23.316;2023-07-31T05:26:17;19.70;;;17.80;;
9773;SDS011;4926;42.670;23.316;2023-07-31T05:28:43;20.35;;;18.35;;
9773;SDS011;4926;42.670;23.316;2023-07-31T05:31:10;19.05;;;17.17;;
9773;SDS011;4926;42.670;23.316;2023-07-31T05:33:38;17.83;;;16.13;;
9773;SDS011;4926;42.670;23.316;2023-07-31T05:36:05;16.98;;;15.38;;
9773;SDS011;4926;42.670;23.316;2023-07-31T05:38:34;15.52;;;14.07;;
9773;SDS011;4926;42.670;23.316;2023-07-31T05:41:02;14.68;;;13.27;;
9773;SDS011;4926;42.670;23.316;2023-07-31T05:43:29;14.45;;;13.15;;
9773;SDS011;4926;42.670;23.316;2023-07-31T05:45:57;15.75;;;14.32;;
9773;SDS011;4926;42.670;23.316;2023-07-31T05:48:24;15.10;;;12.70;;
9773;SDS011;4926;42.670;23.316;2023-07-31T05:50:55;12.02;;;10.93;;
9773;SDS011;4926;42.670;23.316;2023-07-31T05:53:22;11.55;;;10.45;;
9773;SDS011;4926;42.670;23.316;2023-07-31T05:55:48;11.20;;;10.07;;
9773;SDS011;4926;42.670;23.316;2023-07-31T05:58:16;11.55;;;10.45;;
9773;SDS011;4926;42.670;23.316;2023-07-31T06:00:43;10.75;;;9.82;;
9773;SDS011;4926;42.670;23.316;2023-07-31T06:03:10;9.85;;;8.93;;
9773;SDS011;4926;42.670;23.316;2023-07-31T06:05:37;10.13;;;8.27;;
9773;SDS011;4926;42.670;23.316;2023-07-31T06:08:06;8.95;;;8.13;;
9773;SDS011;4926;42.670;23.316;2023-07-31T06:10:33;10.52;;;8.00;;
9773;SDS011;4926;42.670;23.316;2023-07-31T06:13:03;7.38;;;6.68;;
9773;SDS011;4926;42.670;23.316;2023-07-31T06:15:39;6.47;;;5.88;;
9773;SDS011;4926;42.670;23.316;2023-07-31T06:18:06;6.35;;;5.75;;
9773;SDS011;4926;42.670;23.316;2023-07-31T06:20:33;6.22;;;5.72;;
9773;SDS011;4926;42.670;23.316;2023-07-31T06:23:00;6.00;;;5.40;;
9773;SDS011;4926;42.670;23.316;2023-07-31T06:25:29;6.47;;;5.10;;
9773;SDS011;4926;42.670;23.316;2023-07-31T06:27:57;5.30;;;4.90;;
9773;SDS011;4926;42.670;23.316;2023-07-31T06:30:24;5.80;;;4.97;;
9773;SDS011;4926;42.670;23.316;2023-07-31T06:32:52;6.93;;;5.00;;
9773;SDS011;4926;42.670;23.316;2023-07-31T06:35:25;5.35;;;4.85;;
9773;SDS011;4926;42.670;23.316;2023-07-31T06:37:52;5.65;;;5.15;;
9773;SDS011;4926;42.670;23.316;2023-07-31T06:40:21;8.55;;;5.40;;
9773;SDS011;4926;42.670;23.316;2023-07-31T06:42:48;5.30;;;4.70;;
9773;SDS011;4926;42.670;23.316;2023-07-31T06:45:15;5.60;;;5.10;;
9773;SDS011;4926;42.670;23.316;2023-07-31T06:47:42;8.18;;;5.30;;
9773;SDS011;4926;42.670;23.316;2023-07-31T06:50:10;5.80;;;5.13;;
9773;SDS011;4926;42.670;23.316;2023-07-31T06:52:40;7.45;;;5.00;;
9773;SDS011;4926;42.670;23.316;2023-07-31T06:55:15;5.55;;;4.82;;
9773;SDS011;4926;42.670;23.316;2023-07-31T06:57:43;7.93;;;5.18;;
9773;SDS011;4926;42.670;23.316;2023-07-31T07:00:10;5.97;;;4.70;;
9773;SDS011;4926;42.670;23.316;2023-07-31T07:02:40;5.38;;;4.57;;
9773;SDS011;4926;42.670;23.316;2023-07-31T07:05:11;5.07;;;4.60;;
9773;SDS011;4926;42.670;23.316;2023-07-31T07:07:38;5.65;;;4.38;;
9773;SDS011;4926;42.670;23.316;2023-07-31T07:10:05;6.72;;;4.35;;
9773;SDS011;4926;42.670;23.316;2023-07-31T07:12:35;6.22;;;4.22;;
9773;SDS011;4926;42.670;23.316;2023-07-31T07:15:06;4.80;;;4.30;;
9773;SDS011;4926;42.670;23.316;2023-07-31T07:17:33;4.57;;;4.20;;
9773;SDS011;4926;42.670;23.316;2023-07-31T07:19:59;6.05;;;5.45;;
9773;SDS011;4926;42.670;23.316;2023-07-31T07:22:29;5.53;;;4.85;;
9773;SDS011;4926;42.670;23.316;2023-07-31T07:24:56;4.97;;;3.70;;
9773;SDS011;4926;42.670;23.316;2023-07-31T07:27:23;6.68;;;4.20;;
9773;SDS011;4926;42.670;23.316;2023-07-31T07:29:50;4.18;;;3.70;;
9773;SDS011;4926;42.670;23.316;2023-07-31T07:32:17;4.25;;;3.80;;
9773;SDS011;4926;42.670;23.316;2023-07-31T07:34:44;4.50;;;4.10;;
9773;SDS011;4926;42.670;23.316;2023-07-31T07:37:11;4.63;;;4.22;;
9773;SDS011;4926;42.670;23.316;2023-07-31T07:39:40;7.32;;;4.47;;
9773;SDS011;4926;42.670;23.316;2023-07-31T07:42:07;5.65;;;4.20;;
9773;SDS011;4926;42.670;23.316;2023-07-31T07:44:37;5.55;;;4.38;;
9773;SDS011;4926;42.670;23.316;2023-07-31T07:47:03;4.88;;;4.47;;
9773;SDS011;4926;42.670;23.316;2023-07-31T07:49:32;6.45;;;4.45;;
9773;SDS011;4926;42.670;23.316;2023-07-31T07:52:01;4.68;;;4.18;;
9773;SDS011;4926;42.670;23.316;2023-07-31T07:54:27;5.45;;;3.95;;
9773;SDS011;4926;42.670;23.316;2023-07-31T07:56:55;4.93;;;3.78;;
9773;SDS011;4926;42.670;23.316;2023-07-31T07:59:28;4.88;;;3.47;;
9773;SDS011;4926;42.670;23.316;2023-07-31T08:01:55;6.65;;;3.42;;
9773;SDS011;4926;42.670;23.316;2023-07-31T08:04:22;5.10;;;3.90;;
9773;SDS011;4926;42.670;23.316;2023-07-31T08:06:49;7.28;;;3.75;;
9773;SDS011;4926;42.670;23.316;2023-07-31T08:09:19;5.88;;;3.90;;
9773;SDS011;4926;42.670;23.316;2023-07-31T08:11:45;4.90;;;3.70;;
9773;SDS011;4926;42.670;23.316;2023-07-31T08:14:16;5.82;;;3.72;;
9773;SDS011;4926;42.670;23.316;2023-07-31T08:16:43;4.72;;;3.83;;
9773;SDS011;4926;42.670;23.316;2023-07-31T08:19:10;3.90;;;3.50;;
9773;SDS011;4926;42.670;23.316;2023-07-31T08:21:37;4.93;;;3.40;;
9773;SDS011;4926;42.670;23.316;2023-07-31T08:24:04;5.40;;;3.80;;
9773;SDS011;4926;42.670;23.316;2023-07-31T08:26:31;6.50;;;4.53;;
9773;SDS011;4926;42.670;23.316;2023-07-31T08:28:57;7.45;;;3.83;;
9773;SDS011;4926;42.670;23.316;2023-07-31T08:31:25;5.68;;;3.70;;
9773;SDS011;4926;42.670;23.316;2023-07-31T08:33:54;5.10;;;3.60;;
9773;SDS011;4926;42.670;23.316;2023-07-31T08:36:27;4.50;;;3.70;;
9773;SDS011;4926;42.670;23.316;2023-07-31T08:38:53;3.92;;;3.50;;
9773;SDS011;4926;42.670;23.316;2023-07-31T08:41:25;3.92;;;3.53;;
9773;SDS011;4926;42.670;23.316;2023-07-31T08:43:52;4.30;;;3.40;;
9773;SDS011;4926;42.670;23.316;2023-07-31T08:46:21;4.00;;;3.50;;
9773;SDS011;4926;42.670;23.316;2023-07-31T08:48:50;3.40;;;3.10;;
9773;SDS011;4926;42.670;23.316;2023-07-31T08:51:19;6.10;;;3.53;;
9773;SDS011;4926;42.670;23.316;2023-07-31T08:53:46;3.63;;;3.20;;
9773;SDS011;4926;42.670;23.316;2023-07-31T08:56:13;4.70;;;3.40;;
9773;SDS011;4926;42.670;23.316;2023-07-31T08:58:42;6.95;;;3.88;;
9773;SDS011;4926;42.670;23.316;2023-07-31T09:01:10;3.50;;;3.20;;
9773;SDS011;4926;42.670;23.316;2023-07-31T09:03:37;5.45;;;3.75;;
9773;SDS011;4926;42.670;23.316;2023-07-31T09:06:07;6.55;;;3.75;;
9773;SDS011;4926;42.670;23.316;2023-07-31T09:08:36;5.22;;;3.25;;
9773;SDS011;4926;42.670;23.316;2023-07-31T09:11:07;3.60;;;3.30;;
9773;SDS011;4926;42.670;23.316;2023-07-31T09:13:34;3.92;;;3.40;;
9773;SDS011;4926;42.670;23.316;2023-07-31T09:16:01;4.65;;;3.58;;
9773;SDS011;4926;42.670;23.316;2023-07-31T09:18:28;3.72;;;3.42;;
9773;SDS011;4926;42.670;23.316;2023-07-31T09:21:01;5.13;;;3.30;;
9773;SDS011;4926;42.670;23.316;2023-07-31T09:23:41;3.47;;;3.17;;
9773;SDS011;4926;42.670;23.316;2023-07-31T09:26:08;3.95;;;2.95;;
9773;SDS011;4926;42.670;23.316;2023-07-31T09:28:37;3.53;;;2.90;;
9773;SDS011;4926;42.670;23.316;2023-07-31T09:31:04;4.93;;;3.50;;
9773;SDS011;4926;42.670;23.316;2023-07-31T09:33:30;6.78;;;4.22;;
9773;SDS011;4926;42.670;23.316;2023-07-31T09:35:58;5.93;;;3.88;;
9773;SDS011;4926;42.670;23.316;2023-07-31T09:38:26;5.40;;;4.20;;
9773;SDS011;4926;42.670;23.316;2023-07-31T09:40:57;4.28;;;3.88;;
9773;SDS011;4926;42.670;23.316;2023-07-31T09:43:25;4.93;;;3.78;;
9773;SDS011;4926;42.670;23.316;2023-07-31T09:45:56;3.80;;;3.45;;
9773;SDS011;4926;42.670;23.316;2023-07-31T09:48:23;4.78;;;3.45;;
9773;SDS011;4926;42.670;23.316;2023-07-31T09:50:52;3.33;;;3.13;;
9773;SDS011;4926;42.670;23.316;2023-07-31T09:53:24;5.75;;;3.47;;
9773;SDS011;4926;42.670;23.316;2023-07-31T09:55:56;3.67;;;3.05;;
9773;SDS011;4926;42.670;23.316;2023-07-31T09:58:24;4.38;;;3.53;;
9773;SDS011;4926;42.670;23.316;2023-07-31T10:00:55;3.78;;;2.88;;
9773;SDS011;4926;42.670;23.316;2023-07-31T10:03:24;2.60;;;2.40;;
9773;SDS011;4926;42.670;23.316;2023-07-31T10:05:53;3.40;;;3.10;;
9773;SDS011;4926;42.670;23.316;2023-07-31T10:08:21;6.13;;;2.72;;
9773;SDS011;4926;42.670;23.316;2023-07-31T10:10:59;5.15;;;3.10;;
9773;SDS011;4926;42.670;23.316;2023-07-31T10:13:30;3.17;;;2.88;;
9773;SDS011;4926;42.670;23.316;2023-07-31T10:15:58;3.38;;;3.08;;
9773;SDS011;4926;42.670;23.316;2023-07-31T10:18:26;3.67;;;2.67;;
9773;SDS011;4926;42.670;23.316;2023-07-31T10:20:54;3.90;;;2.70;;
9773;SDS011;4926;42.670;23.316;2023-07-31T10:23:21;2.70;;;2.50;;
9773;SDS011;4926;42.670;23.316;2023-07-31T10:25:49;4.25;;;3.03;;
9773;SDS011;4926;42.670;23.316;2023-07-31T10:28:18;2.60;;;2.40;;
9773;SDS011;4926;42.670;23.316;2023-07-31T10:30:45;4.25;;;2.53;;
9773;SDS011;4926;42.670;23.316;2023-07-31T10:33:12;5.05;;;2.60;;
9773;SDS011;4926;42.670;23.316;2023-07-31T10:35:40;3.17;;;2.55;;
9773;SDS011;4926;42.670;23.316;2023-07-31T10:38:10;4.10;;;2.72;;
9773;SDS011;4926;42.670;23.316;2023-07-31T10:40:38;2.75;;;2.47;;
9773;SDS011;4926;42.670;23.316;2023-07-31T10:43:07;5.85;;;3.03;;
9773;SDS011;4926;42.670;23.316;2023-07-31T10:45:38;3.10;;;2.67;;
9773;SDS011;4926;42.670;23.316;2023-07-31T10:48:06;2.83;;;2.60;;
9773;SDS011;4926;42.670;23.316;2023-07-31T10:50:46;2.60;;;2.40;;
9773;SDS011;4926;42.670;23.316;2023-07-31T10:53:22;3.42;;;2.90;;
9773;SDS011;4926;42.670;23.316;2023-07-31T10:55:49;2.60;;;2.40;;
9773;SDS011;4926;42.670;23.316;2023-07-31T10:58:18;4.15;;;2.40;;
9773;SDS011;4926;42.670;23.316;2023-07-31T11:00:49;2.97;;;2.67;;
9773;SDS011;4926;42.670;23.316;2023-07-31T11:03:16;4.05;;;2.20;;
9773;SDS011;4926;42.670;23.316;2023-07-31T11:05:47;2.78;;;2.17;;
9773;SDS011;4926;42.670;23.316;2023-07-31T11:08:19;2.30;;;2.00;;
9773;SDS011;4926;42.670;23.316;2023-07-31T11:10:48;4.03;;;2.70;;
9773;SDS011;4926;42.670;23.316;2023-07-31T11:13:19;2.40;;;2.20;;
9773;SDS011;4926;42.670;23.316;2023-07-31T11:15:46;5.13;;;2.30;;
9773;SDS011;4926;42.670;23.316;2023-07-31T11:18:17;4.13;;;2.50;;
9773;SDS011;4926;42.670;23.316;2023-07-31T11:20:44;3.33;;;2.30;;
9773;SDS011;4926;42.670;23.316;2023-07-31T11:23:10;4.35;;;2.20;;
9773;SDS011;4926;42.670;23.316;2023-07-31T11:25:38;2.90;;;2.25;;
9773;SDS011;4926;42.670;23.316;2023-07-31T11:28:07;2.90;;;2.38;;
9773;SDS011;4926;42.670;23.316;2023-07-31T11:30:41;2.72;;;2.28;;
9773;SDS011;4926;42.670;23.316;2023-07-31T11:33:09;3.63;;;2.10;;
9773;SDS011;4926;42.670;23.316;2023-07-31T11:35:42;3.55;;;2.30;;
9773;SDS011;4926;42.670;23.316;2023-07-31T11:38:11;5.60;;;2.40;;
9773;SDS011;4926;42.670;23.316;2023-07-31T11:40:40;3.05;;;2.30;;
9773;SDS011;4926;42.670;23.316;2023-07-31T11:43:08;4.78;;;2.53;;
9773;SDS011;4926;42.670;23.316;2023-07-31T11:45:36;2.90;;;2.60;;
9773;SDS011;4926;42.670;23.316;2023-07-31T11:48:06;3.20;;;3.00;;
9773;SDS011;4926;42.670;23.316;2023-07-31T11:50:35;5.63;;;3.00;;
9773;SDS011;4926;42.670;23.316;2023-07-31T11:53:05;5.07;;;3.00;;
9773;SDS011;4926;42.670;23.316;2023-07-31T11:55:35;2.95;;;2.63;;
9773;SDS011;4926;42.670;23.316;2023-07-31T11:58:02;5.28;;;2.88;;
9773;SDS011;4926;42.670;23.316;2023-07-31T12:00:29;3.53;;;3.00;;
9773;SDS011;4926;42.670;23.316;2023-07-31T12:02:58;4.03;;;2.95;;
9773;SDS011;4926;42.670;23.316;2023-07-31T12:05:25;3.88;;;2.75;;
9773;SDS011;4926;42.670;23.316;2023-07-31T12:07:53;4.70;;;3.22;;
9773;SDS011;4926;42.670;23.316;2023-07-31T12:10:26;4.47;;;3.78;;
9773;SDS011;4926;42.670;23.316;2023-07-31T12:12:58;3.88;;;3.58;;
9773;SDS011;4926;42.670;23.316;2023-07-31T12:15:33;5.28;;;3.63;;
9773;SDS011;4926;42.670;23.316;2023-07-31T12:18:03;6.72;;;3.90;;
9773;SDS011;4926;42.670;23.316;2023-07-31T12:20:31;4.32;;;4.03;;
9773;SDS011;4926;42.670;23.316;2023-07-31T12:23:00;5.68;;;5.18;;
9773;SDS011;4926;42.670;23.316;2023-07-31T12:25:32;6.03;;;5.53;;
9773;SDS011;4926;42.670;23.316;2023-07-31T12:28:04;5.97;;;5.47;;
9773;SDS011;4926;42.670;23.316;2023-07-31T12:30:36;5.72;;;5.22;;
9773;SDS011;4926;42.670;23.316;2023-07-31T12:33:03;5.50;;;5.10;;
9773;SDS011;4926;42.670;23.316;2023-07-31T12:35:35;6.13;;;5.47;;
9773;SDS011;4926;42.670;23.316;2023-07-31T12:38:03;4.72;;;4.32;;
9773;SDS011;4926;42.670;23.316;2023-07-31T12:40:37;5.88;;;4.78;;
9773;SDS011;4926;42.670;23.316;2023-07-31T12:43:05;6.35;;;4.72;;
9773;SDS011;4926;42.670;23.316;2023-07-31T12:45:32;5.75;;;4.50;;
9773;SDS011;4926;42.670;23.316;2023-07-31T12:47:59;4.90;;;4.47;;
9773;SDS011;4926;42.670;23.316;2023-07-31T12:50:26;5.18;;;4.47;;
9773;SDS011;4926;42.670;23.316;2023-07-31T12:52:56;6.28;;;5.10;;
9773;SDS011;4926;42.670;23.316;2023-07-31T12:55:23;6.35;;;5.43;;
9773;SDS011;4926;42.670;23.316;2023-07-31T12:57:52;6.93;;;5.53;;
9773;SDS011;4926;42.670;23.316;2023-07-31T13:00:18;6.72;;;5.55;;
9773;SDS011;4926;42.670;23.316;2023-07-31T13:02:45;5.97;;;5.47;;
9773;SDS011;4926;42.670;23.316;2023-07-31T13:05:12;6.68;;;5.20;;
9773;SDS011;4926;42.670;23.316;2023-07-31T13:07:39;6.40;;;5.80;;
9773;SDS011;4926;42.670;23.316;2023-07-31T13:10:09;6.35;;;5.85;;
9773;SDS011;4926;42.670;23.316;2023-07-31T13:12:37;7.32;;;6.10;;
9773;SDS011;4926;42.670;23.316;2023-07-31T13:15:06;6.43;;;5.82;;
9773;SDS011;4926;42.670;23.316;2023-07-31T13:17:33;6.15;;;5.55;;
9773;SDS011;4926;42.670;23.316;2023-07-31T13:20:00;6.20;;;5.65;;
9773;SDS011;4926;42.670;23.316;2023-07-31T13:22:30;5.90;;;5.28;;
9773;SDS011;4926;42.670;23.316;2023-07-31T13:24:56;5.60;;;4.93;;
9773;SDS011;4926;42.670;23.316;2023-07-31T13:27:23;6.90;;;5.00;;
9773;SDS011;4926;42.670;23.316;2023-07-31T13:29:50;5.20;;;4.70;;
9773;SDS011;4926;42.670;23.316;2023-07-31T13:32:19;5.20;;;4.47;;
9773;SDS011;4926;42.670;23.316;2023-07-31T13:34:47;6.43;;;5.53;;
9773;SDS011;4926;42.670;23.316;2023-07-31T13:37:14;4.78;;;4.30;;
9773;SDS011;4926;42.670;23.316;2023-07-31T13:39:44;7.38;;;4.88;;
9773;SDS011;4926;42.670;23.316;2023-07-31T13:42:11;5.40;;;4.45;;
9773;SDS011;4926;42.670;23.316;2023-07-31T13:44:47;4.80;;;4.30;;
9773;SDS011;4926;42.670;23.316;2023-07-31T13:47:14;5.43;;;4.95;;
9773;SDS011;4926;42.670;23.316;2023-07-31T13:49:42;4.53;;;4.00;;
9773;SDS011;4926;42.670;23.316;2023-07-31T13:52:09;4.45;;;4.15;;
9773;SDS011;4926;42.670;23.316;2023-07-31T13:54:35;4.93;;;4.47;;
9773;SDS011;4926;42.670;23.316;2023-07-31T13:57:02;5.50;;;3.70;;
9773;SDS011;4926;42.670;23.316;2023-07-31T13:59:29;4.65;;;4.25;;
9773;SDS011;4926;42.670;23.316;2023-07-31T14:01:56;7.88;;;4.63;;
9773;SDS011;4926;42.670;23.316;2023-07-31T14:04:23;4.43;;;4.03;;
9773;SDS011;4926;42.670;23.316;2023-07-31T14:06:51;5.85;;;4.32;;
9773;SDS011;4926;42.670;23.316;2023-07-31T14:09:20;4.30;;;3.95;;
9773;SDS011;4926;42.670;23.316;2023-07-31T14:11:49;4.40;;;4.00;;
9773;SDS011;4926;42.670;23.316;2023-07-31T14:14:15;5.13;;;4.63;;
9773;SDS011;4926;42.670;23.316;2023-07-31T14:16:46;4.40;;;4.00;;
9773;SDS011;4926;42.670;23.316;2023-07-31T14:19:13;4.68;;;3.80;;
9773;SDS011;4926;42.670;23.316;2023-07-31T14:21:40;7.65;;;4.50;;
9773;SDS011;4926;42.670;23.316;2023-07-31T14:24:08;4.82;;;4.05;;
9773;SDS011;4926;42.670;23.316;2023-07-31T14:26:35;4.78;;;4.38;;
9773;SDS011;4926;42.670;23.316;2023-07-31T14:29:01;4.03;;;3.67;;
9773;SDS011;4926;42.670;23.316;2023-07-31T14:31:28;4.90;;;4.03;;
9773;SDS011;4926;42.670;23.316;2023-07-31T14:33:55;4.93;;;3.90;;
9773;SDS011;4926;42.670;23.316;2023-07-31T14:36:23;4.40;;;4.03;;
9773;SDS011;4926;42.670;23.316;2023-07-31T14:38:52;5.03;;;4.20;;
9773;SDS011;4926;42.670;23.316;2023-07-31T14:41:26;4.70;;;3.85;;
9773;SDS011;4926;42.670;23.316;2023-07-31T14:43:53;5.03;;;3.90;;
9773;SDS011;4926;42.670;23.316;2023-07-31T14:46:22;7.57;;;4.18;;
9773;SDS011;4926;42.670;23.316;2023-07-31T14:48:49;4.10;;;3.80;;
9773;SDS011;4926;42.670;23.316;2023-07-31T14:51:16;5.30;;;4.38;;
9773;SDS011;4926;42.670;23.316;2023-07-31T14:53:46;6.15;;;3.97;;
9773;SDS011;4926;42.670;23.316;2023-07-31T14:56:15;5.30;;;4.10;;
9773;SDS011;4926;42.670;23.316;2023-07-31T14:58:43;9.20;;;4.20;;
9773;SDS011;4926;42.670;23.316;2023-07-31T15:01:10;8.57;;;4.22;;
9773;SDS011;4926;42.670;23.316;2023-07-31T15:03:38;5.30;;;3.80;;